Ana Sayfa
METAR-TAF:

METAR-TAF

Havaalanları :

Gran Canaria Havalimanı

Gran Canaria, İspanya

Enlem: 27-56N, Boylam: 015-23W, yükseklik: 23 m

Güncel hava durumu gözlemi

Rapor saat 16:00 UTC de 26 dakika önce yapıldı.
Rüzgar kuzeydoğudan 8 kt
Sıcaklık 24°C
Nem 29%
Basınç 1016 hPa
Görüş mesafesi: 0900 m
Toz Pusu

METAR: GCLP 221600Z 04008KT 0900 R03/1500N R21/2000N HZ VV008 24/05 Q1016 WS ALL RWY NOSIG

Saat: 16:26 (16:26 UTC)

Tahmin

Rapor saat 15:44 UTC de 42 dakika önce yapıldı.
Ayın 22'si saat 15 UTC'den ayın 23'si saat 15 UTC'ye kadar geçerli Tahmin
Rüzgar kuzeydoğudan 12 kt
Görüş mesafesi: 2000 m
Toz Pusu
Dönüşüyor
ayın 23'si saat 08 UTC'den ayın 23'si saat 10 UTC'ye kadar
Rüzgar güneydan 4 kt
Olasılık 30%
ayın 22'si saat 15 UTC'den ayın 23'si saat 06 UTC'ye kadar
Görüş mesafesi: 0900 m
Toz Pusu

TAF: GCLP 221544Z 2215/2315 04012KT 2000 HZ NSC TX25/2215Z TN15/2306Z BECMG 2308/2310 17004KT PROB30 2215/2306 0900 HZ

4.000'den fazla havaalanı için hava durumu gözlemleri ve tahminleri (METAR ve TAF raporları).

Kullanılabilir istasyonlar harita üzerinde sarı ve kırmızı noktalarla gösterilir.

İstasyonun adını görmek için fareyi noktanın üzerinde gezdirin.

Sonrasında hava gözlem ve tahminlerini görmek için tıklayın.

Haritayı değiştirmek için: yaklaştırmak için siyah artı işaretli yeşil düğmeye ve uzaklaştırmak için de eksi işaretli düğmeye hızla tıklayın; bitişik haritalar için yeşil okları kullanın.


METAR-TAF: